sensor_id;sensor_type;location;lat;lon;timestamp;pressure;altitude;pressure_sealevel;temperature;humidity
37078;BME280;22989;55.998;37.212;2023-12-22T00:01:05;41750.66;;;-145.39;61.68
37078;BME280;22989;55.998;37.212;2023-12-22T00:03:31;41768.22;;;-145.39;61.61
37078;BME280;22989;55.998;37.212;2023-12-22T00:05:57;41758.47;;;-145.39;61.62
37078;BME280;22989;55.998;37.212;2023-12-22T00:08:22;41737.00;;;-145.39;61.65
37078;BME280;22989;55.998;37.212;2023-12-22T00:10:49;41789.72;;;-145.39;61.61
37078;BME280;22989;55.998;37.212;2023-12-22T00:13:14;41758.47;;;-145.39;61.61
37078;BME280;22989;55.998;37.212;2023-12-22T00:15:40;41762.38;;;-145.39;61.58
37078;BME280;22989;55.998;37.212;2023-12-22T00:18:08;41756.53;;;-145.39;61.58
37078;BME280;22989;55.998;37.212;2023-12-22T00:20:34;41776.03;;;-145.39;61.55
37078;BME280;22989;55.998;37.212;2023-12-22T00:23:00;41731.16;;;-145.39;61.63
37078;BME280;22989;55.998;37.212;2023-12-22T00:25:26;41742.84;;;-145.39;61.49
37078;BME280;22989;55.998;37.212;2023-12-22T00:27:51;41705.75;;;-145.39;61.57
37078;BME280;22989;55.998;37.212;2023-12-22T00:30:17;41768.22;;;-145.39;61.44
37078;BME280;22989;55.998;37.212;2023-12-22T00:32:43;41774.09;;;-145.39;61.37
37078;BME280;22989;55.998;37.212;2023-12-22T00:35:08;41764.34;;;-145.39;61.47
37078;BME280;22989;55.998;37.212;2023-12-22T00:37:34;41774.09;;;-145.39;61.36
37078;BME280;22989;55.998;37.212;2023-12-22T00:39:59;41795.56;;;-145.39;61.39
37078;BME280;22989;55.998;37.212;2023-12-22T00:42:26;41817.03;;;-145.39;61.38
37078;BME280;22989;55.998;37.212;2023-12-22T00:44:51;41752.63;;;-145.39;61.46
37078;BME280;22989;55.998;37.212;2023-12-22T00:47:17;41803.38;;;-145.39;61.34
37078;BME280;22989;55.998;37.212;2023-12-22T00:49:43;41770.19;;;-145.39;61.37
37078;BME280;22989;55.998;37.212;2023-12-22T00:52:09;41828.75;;;-145.39;61.39
37078;BME280;22989;55.998;37.212;2023-12-22T00:54:34;41826.81;;;-145.39;61.33
37078;BME280;22989;55.998;37.212;2023-12-22T00:57:00;41803.38;;;-145.39;61.41
37078;BME280;22989;55.998;37.212;2023-12-22T00:59:25;41811.19;;;-145.39;61.45
37078;BME280;22989;55.998;37.212;2023-12-22T01:01:51;41861.94;;;-145.39;61.49
37078;BME280;22989;55.998;37.212;2023-12-22T01:04:16;41865.84;;;-145.39;61.50
37078;BME280;22989;55.998;37.212;2023-12-22T01:06:42;41824.84;;;-145.39;61.46
37078;BME280;22989;55.998;37.212;2023-12-22T01:09:08;41869.75;;;-145.39;61.62
37078;BME280;22989;55.998;37.212;2023-12-22T01:11:33;41869.75;;;-145.39;61.51
37078;BME280;22989;55.998;37.212;2023-12-22T01:13:59;41811.19;;;-145.39;61.69
37078;BME280;22989;55.998;37.212;2023-12-22T01:16:24;41838.50;;;-145.39;61.66
37078;BME280;22989;55.998;37.212;2023-12-22T01:18:50;41854.13;;;-145.39;61.65
37078;BME280;22989;55.998;37.212;2023-12-22T01:21:18;41854.13;;;-145.39;61.63
37078;BME280;22989;55.998;37.212;2023-12-22T01:23:44;41861.94;;;-145.39;61.56
37078;BME280;22989;55.998;37.212;2023-12-22T01:26:09;41854.13;;;-145.39;61.61
37078;BME280;22989;55.998;37.212;2023-12-22T01:28:35;41838.50;;;-145.39;61.75
37078;BME280;22989;55.998;37.212;2023-12-22T01:31:02;41836.56;;;-145.39;61.55
37078;BME280;22989;55.998;37.212;2023-12-22T01:33:28;41840.47;;;-145.39;61.63
37078;BME280;22989;55.998;37.212;2023-12-22T01:35:54;41836.56;;;-145.39;61.58
37078;BME280;22989;55.998;37.212;2023-12-22T01:38:20;41826.81;;;-145.39;61.63
37078;BME280;22989;55.998;37.212;2023-12-22T01:40:46;41844.38;;;-145.39;61.66
37078;BME280;22989;55.998;37.212;2023-12-22T01:43:12;41840.47;;;-145.39;61.66
37078;BME280;22989;55.998;37.212;2023-12-22T01:45:40;41834.59;;;-145.39;61.72
37078;BME280;22989;55.998;37.212;2023-12-22T01:48:09;41834.59;;;-145.39;61.73
37078;BME280;22989;55.998;37.212;2023-12-22T01:50:34;41844.38;;;-145.39;61.80
37078;BME280;22989;55.998;37.212;2023-12-22T01:53:01;41830.72;;;-145.39;61.69
37078;BME280;22989;55.998;37.212;2023-12-22T01:55:27;41826.81;;;-145.39;61.64
37078;BME280;22989;55.998;37.212;2023-12-22T01:57:53;41856.09;;;-145.39;61.70
37078;BME280;22989;55.998;37.212;2023-12-22T02:00:18;41826.81;;;-145.39;61.68
37078;BME280;22989;55.998;37.212;2023-12-22T02:02:44;41776.03;;;-145.39;61.66
37078;BME280;22989;55.998;37.212;2023-12-22T02:05:10;41822.91;;;-145.39;61.64
37078;BME280;22989;55.998;37.212;2023-12-22T02:07:42;41832.66;;;-145.39;61.55
37078;BME280;22989;55.998;37.212;2023-12-22T02:10:09;41824.84;;;-145.39;61.55
37078;BME280;22989;55.998;37.212;2023-12-22T02:12:38;41807.28;;;-145.39;61.56
37078;BME280;22989;55.998;37.212;2023-12-22T02:15:04;41811.19;;;-145.39;61.65
37078;BME280;22989;55.998;37.212;2023-12-22T02:17:48;41822.91;;;-145.39;61.58
37078;BME280;22989;55.998;37.212;2023-12-22T02:20:16;41813.13;;;-145.39;61.49
37078;BME280;22989;55.998;37.212;2023-12-22T02:22:41;41832.66;;;-145.39;61.34
37078;BME280;22989;55.998;37.212;2023-12-22T02:25:07;41817.03;;;-145.39;61.50
37078;BME280;22989;55.998;37.212;2023-12-22T02:27:49;41795.56;;;-145.39;61.46
37078;BME280;22989;55.998;37.212;2023-12-22T02:30:39;41779.94;;;-145.39;61.39
37078;BME280;22989;55.998;37.212;2023-12-22T02:33:08;41809.22;;;-145.39;61.43
37078;BME280;22989;55.998;37.212;2023-12-22T02:35:36;41770.19;;;-145.39;61.32
37078;BME280;22989;55.998;37.212;2023-12-22T02:38:04;41764.34;;;-145.39;61.45
37078;BME280;22989;55.998;37.212;2023-12-22T02:40:31;41807.28;;;-145.39;61.34
37078;BME280;22989;55.998;37.212;2023-12-22T02:42:56;41793.63;;;-145.39;61.29
37078;BME280;22989;55.998;37.212;2023-12-22T02:45:22;41785.81;;;-145.39;61.05
37078;BME280;22989;55.998;37.212;2023-12-22T02:47:48;41856.09;;;-145.39;61.38
37078;BME280;22989;55.998;37.212;2023-12-22T02:50:15;41799.47;;;-145.39;61.20
37078;BME280;22989;55.998;37.212;2023-12-22T02:52:41;41778.00;;;-145.39;61.29
37078;BME280;22989;55.998;37.212;2023-12-22T02:55:07;41785.81;;;-145.39;61.13
37078;BME280;22989;55.998;37.212;2023-12-22T02:57:32;41817.03;;;-145.39;61.20
37078;BME280;22989;55.998;37.212;2023-12-22T02:59:58;41811.19;;;-145.39;61.20
37078;BME280;22989;55.998;37.212;2023-12-22T03:02:24;41795.56;;;-145.39;61.03
37078;BME280;22989;55.998;37.212;2023-12-22T03:04:50;41824.84;;;-145.39;61.20
37078;BME280;22989;55.998;37.212;2023-12-22T03:07:16;41795.56;;;-145.39;60.94
37078;BME280;22989;55.998;37.212;2023-12-22T03:09:41;41809.22;;;-145.39;61.12
37078;BME280;22989;55.998;37.212;2023-12-22T03:12:08;41803.38;;;-145.39;61.03
37078;BME280;22989;55.998;37.212;2023-12-22T03:14:34;41791.66;;;-145.39;61.02
37078;BME280;22989;55.998;37.212;2023-12-22T03:17:03;41789.72;;;-145.39;60.91
37078;BME280;22989;55.998;37.212;2023-12-22T03:19:30;41822.91;;;-145.39;61.00
37078;BME280;22989;55.998;37.212;2023-12-22T03:21:55;41809.22;;;-145.39;60.86
37078;BME280;22989;55.998;37.212;2023-12-22T03:24:22;41795.56;;;-145.39;60.98
37078;BME280;22989;55.998;37.212;2023-12-22T03:26:48;41801.41;;;-145.39;60.95
37078;BME280;22989;55.998;37.212;2023-12-22T03:29:14;41778.00;;;-145.39;60.86
37078;BME280;22989;55.998;37.212;2023-12-22T03:31:40;41781.91;;;-145.39;60.77
37078;BME280;22989;55.998;37.212;2023-12-22T03:34:06;41801.41;;;-145.39;60.87
37078;BME280;22989;55.998;37.212;2023-12-22T03:36:31;41807.28;;;-145.39;60.87
37078;BME280;22989;55.998;37.212;2023-12-22T03:38:57;41815.09;;;-145.39;60.67
37078;BME280;22989;55.998;37.212;2023-12-22T03:41:22;41807.28;;;-145.39;60.69
37078;BME280;22989;55.998;37.212;2023-12-22T03:43:48;41789.72;;;-145.39;60.77
37078;BME280;22989;55.998;37.212;2023-12-22T03:46:13;41799.47;;;-145.39;60.58
37078;BME280;22989;55.998;37.212;2023-12-22T03:48:39;41789.72;;;-145.39;60.71
37078;BME280;22989;55.998;37.212;2023-12-22T03:51:04;41809.22;;;-145.39;60.57
37078;BME280;22989;55.998;37.212;2023-12-22T03:53:30;41813.13;;;-145.39;60.53
37078;BME280;22989;55.998;37.212;2023-12-22T03:55:55;41803.38;;;-145.39;60.36
37078;BME280;22989;55.998;37.212;2023-12-22T03:58:21;41799.47;;;-145.39;60.42
37078;BME280;22989;55.998;37.212;2023-12-22T04:00:46;41803.38;;;-145.39;60.53
37078;BME280;22989;55.998;37.212;2023-12-22T04:03:13;41801.41;;;-145.39;60.54
37078;BME280;22989;55.998;37.212;2023-12-22T04:05:38;41779.94;;;-145.39;60.42
37078;BME280;22989;55.998;37.212;2023-12-22T04:08:05;41813.13;;;-145.39;60.48
37078;BME280;22989;55.998;37.212;2023-12-22T04:10:30;41811.19;;;-145.39;60.52
37078;BME280;22989;55.998;37.212;2023-12-22T04:12:56;41844.38;;;-145.39;60.64
37078;BME280;22989;55.998;37.212;2023-12-22T04:15:21;41787.75;;;-145.39;60.47
37078;BME280;22989;55.998;37.212;2023-12-22T04:17:47;41819.00;;;-145.39;60.57
37078;BME280;22989;55.998;37.212;2023-12-22T04:20:13;41813.13;;;-145.39;60.39
37078;BME280;22989;55.998;37.212;2023-12-22T04:22:39;41826.81;;;-145.39;60.21
37078;BME280;22989;55.998;37.212;2023-12-22T04:25:04;41820.94;;;-145.39;60.28
37078;BME280;22989;55.998;37.212;2023-12-22T04:27:31;41820.94;;;-145.39;60.04
37078;BME280;22989;55.998;37.212;2023-12-22T04:29:57;41815.09;;;-145.39;60.05
37078;BME280;22989;55.998;37.212;2023-12-22T04:32:22;41826.81;;;-145.39;60.08
37078;BME280;22989;55.998;37.212;2023-12-22T04:34:48;41838.50;;;-145.39;60.16
37078;BME280;22989;55.998;37.212;2023-12-22T04:37:13;41830.72;;;-145.39;60.16
37078;BME280;22989;55.998;37.212;2023-12-22T04:39:39;41836.56;;;-145.39;60.05
37078;BME280;22989;55.998;37.212;2023-12-22T04:42:05;41803.38;;;-145.39;60.13
37078;BME280;22989;55.998;37.212;2023-12-22T04:44:31;41811.19;;;-145.39;60.18
37078;BME280;22989;55.998;37.212;2023-12-22T04:46:56;41828.75;;;-145.39;60.11
37078;BME280;22989;55.998;37.212;2023-12-22T04:49:22;41842.41;;;-145.39;60.20
37078;BME280;22989;55.998;37.212;2023-12-22T04:51:47;41832.66;;;-145.39;60.13
37078;BME280;22989;55.998;37.212;2023-12-22T04:54:13;41850.22;;;-145.39;60.08
37078;BME280;22989;55.998;37.212;2023-12-22T04:56:38;41838.50;;;-145.39;60.05
37078;BME280;22989;55.998;37.212;2023-12-22T04:59:04;41852.19;;;-145.39;60.01
37078;BME280;22989;55.998;37.212;2023-12-22T05:01:29;41836.56;;;-145.39;60.18
37078;BME280;22989;55.998;37.212;2023-12-22T05:03:55;41836.56;;;-145.39;60.06
37078;BME280;22989;55.998;37.212;2023-12-22T05:06:20;41832.66;;;-145.39;60.13
37078;BME280;22989;55.998;37.212;2023-12-22T05:08:46;41842.41;;;-145.39;60.18
37078;BME280;22989;55.998;37.212;2023-12-22T05:11:12;41836.56;;;-145.39;60.06
37078;BME280;22989;55.998;37.212;2023-12-22T05:13:37;41860.00;;;-145.39;60.11
37078;BME280;22989;55.998;37.212;2023-12-22T05:16:03;41865.84;;;-145.39;60.11
37078;BME280;22989;55.998;37.212;2023-12-22T05:18:32;41848.28;;;-145.39;59.94
37078;BME280;22989;55.998;37.212;2023-12-22T05:20:57;41805.31;;;-145.39;60.08
37078;BME280;22989;55.998;37.212;2023-12-22T05:23:23;41873.66;;;-145.39;60.24
37078;BME280;22989;55.998;37.212;2023-12-22T05:25:49;41881.47;;;-145.39;59.86
37078;BME280;22989;55.998;37.212;2023-12-22T05:28:14;41893.19;;;-145.39;59.94
37078;BME280;22989;55.998;37.212;2023-12-22T05:30:40;41941.97;;;-145.39;60.06
37078;BME280;22989;55.998;37.212;2023-12-22T05:33:05;41996.66;;;-145.39;60.06
37078;BME280;22989;55.998;37.212;2023-12-22T05:35:31;42029.84;;;-145.39;59.95
37078;BME280;22989;55.998;37.212;2023-12-22T05:37:56;42156.75;;;-145.39;59.96
37078;BME280;22989;55.998;37.212;2023-12-22T05:40:22;42279.75;;;-145.39;60.02
37078;BME280;22989;55.998;37.212;2023-12-22T05:42:47;42488.66;;;-145.39;59.89
37078;BME280;22989;55.998;37.212;2023-12-22T05:45:13;42836.25;;;-145.39;59.98
37078;BME280;22989;55.998;37.212;2023-12-22T05:47:39;43168.22;;;-145.39;59.82
37078;BME280;22989;55.998;37.212;2023-12-22T05:50:05;43402.56;;;-145.39;59.96
37078;BME280;22989;55.998;37.212;2023-12-22T05:52:31;43437.72;;;-145.39;59.89
37078;BME280;22989;55.998;37.212;2023-12-22T05:54:56;43562.72;;;-145.39;59.86
37078;BME280;22989;55.998;37.212;2023-12-22T05:57:21;43605.69;;;-145.39;59.86
37078;BME280;22989;55.998;37.212;2023-12-22T05:59:47;43582.25;;;-145.39;59.91
37078;BME280;22989;55.998;37.212;2023-12-22T06:02:12;43562.72;;;-145.39;59.72
37078;BME280;22989;55.998;37.212;2023-12-22T06:04:38;43525.63;;;-145.39;59.76
37078;BME280;22989;55.998;37.212;2023-12-22T06:07:04;43593.97;;;-145.39;59.79
37078;BME280;22989;55.998;37.212;2023-12-22T06:09:30;43674.06;;;-145.39;59.76
37078;BME280;22989;55.998;37.212;2023-12-22T06:11:55;43658.44;;;-145.39;59.79
37078;BME280;22989;55.998;37.212;2023-12-22T06:14:21;43670.16;;;-145.39;59.72
37078;BME280;22989;55.998;37.212;2023-12-22T06:16:47;43699.44;;;-145.39;59.67
37078;BME280;22989;55.998;37.212;2023-12-22T06:19:12;43744.38;;;-145.39;59.53
37078;BME280;22989;55.998;37.212;2023-12-22T06:21:38;43756.09;;;-145.39;59.64
37078;BME280;22989;55.998;37.212;2023-12-22T06:24:05;43767.81;;;-145.39;59.52
37078;BME280;22989;55.998;37.212;2023-12-22T06:26:30;43804.94;;;-145.39;59.53
37078;BME280;22989;55.998;37.212;2023-12-22T06:28:56;43804.94;;;-145.39;59.57
37078;BME280;22989;55.998;37.212;2023-12-22T06:31:22;43844.00;;;-145.39;59.55
37078;BME280;22989;55.998;37.212;2023-12-22T06:33:48;43840.09;;;-145.39;59.42
37078;BME280;22989;55.998;37.212;2023-12-22T06:36:21;43883.06;;;-145.39;59.38
37078;BME280;22989;55.998;37.212;2023-12-22T06:38:47;43859.63;;;-145.39;59.56
37078;BME280;22989;55.998;37.212;2023-12-22T06:41:23;43820.56;;;-145.39;59.50
37078;BME280;22989;55.998;37.212;2023-12-22T06:43:50;43824.47;;;-145.39;59.55
37078;BME280;22989;55.998;37.212;2023-12-22T06:46:20;43834.22;;;-145.39;59.54
37078;BME280;22989;55.998;37.212;2023-12-22T06:48:47;43789.28;;;-145.39;59.58
37078;BME280;22989;55.998;37.212;2023-12-22T06:51:30;43818.59;;;-145.39;59.60
37078;BME280;22989;55.998;37.212;2023-12-22T06:53:56;43750.22;;;-145.39;59.55
37078;BME280;22989;55.998;37.212;2023-12-22T06:56:27;43746.31;;;-145.39;59.37
37078;BME280;22989;55.998;37.212;2023-12-22T06:58:54;43740.47;;;-145.39;59.08
37078;BME280;22989;55.998;37.212;2023-12-22T07:01:22;43752.19;;;-145.39;59.21
37078;BME280;22989;55.998;37.212;2023-12-22T07:03:48;43703.34;;;-145.39;59.18
37078;BME280;22989;55.998;37.212;2023-12-22T07:06:15;43728.75;;;-145.39;59.08
37078;BME280;22989;55.998;37.212;2023-12-22T07:08:41;43742.41;;;-145.39;59.29
37078;BME280;22989;55.998;37.212;2023-12-22T07:11:06;43683.81;;;-145.39;59.22
37078;BME280;22989;55.998;37.212;2023-12-22T07:13:32;43722.88;;;-145.39;59.06
37078;BME280;22989;55.998;37.212;2023-12-22T07:15:58;43756.09;;;-145.39;59.00
37078;BME280;22989;55.998;37.212;2023-12-22T07:18:24;43802.97;;;-145.39;59.12
37078;BME280;22989;55.998;37.212;2023-12-22T07:20:50;43777.56;;;-145.39;58.90
37078;BME280;22989;55.998;37.212;2023-12-22T07:23:16;43822.50;;;-145.39;58.94
37078;BME280;22989;55.998;37.212;2023-12-22T07:25:41;43783.44;;;-145.39;58.87
37078;BME280;22989;55.998;37.212;2023-12-22T07:28:07;43840.09;;;-145.39;59.25
37078;BME280;22989;55.998;37.212;2023-12-22T07:30:33;43900.63;;;-145.39;58.99
37078;BME280;22989;55.998;37.212;2023-12-22T07:32:59;43933.84;;;-145.39;58.87
37078;BME280;22989;55.998;37.212;2023-12-22T07:35:24;43939.69;;;-145.39;58.77
37078;BME280;22989;55.998;37.212;2023-12-22T07:37:50;43957.28;;;-145.39;58.82
37078;BME280;22989;55.998;37.212;2023-12-22T07:40:15;43939.69;;;-145.39;58.87
37078;BME280;22989;55.998;37.212;2023-12-22T07:42:41;43992.44;;;-145.39;58.83
37078;BME280;22989;55.998;37.212;2023-12-22T07:45:07;43984.63;;;-145.39;58.65
37078;BME280;22989;55.998;37.212;2023-12-22T07:47:33;44027.59;;;-145.39;58.65
37078;BME280;22989;55.998;37.212;2023-12-22T07:49:59;44031.50;;;-145.39;58.72
37078;BME280;22989;55.998;37.212;2023-12-22T07:52:24;44056.91;;;-145.39;58.55
37078;BME280;22989;55.998;37.212;2023-12-22T07:54:50;44047.13;;;-145.39;58.87
37078;BME280;22989;55.998;37.212;2023-12-22T07:57:16;44000.25;;;-145.39;58.78
37078;BME280;22989;55.998;37.212;2023-12-22T07:59:42;43969.00;;;-145.39;58.63
37078;BME280;22989;55.998;37.212;2023-12-22T08:02:07;43935.78;;;-145.39;58.62
37078;BME280;22989;55.998;37.212;2023-12-22T08:04:33;44025.66;;;-145.39;58.55
37078;BME280;22989;55.998;37.212;2023-12-22T08:06:59;44041.28;;;-145.39;58.59
37078;BME280;22989;55.998;37.212;2023-12-22T08:09:24;44011.97;;;-145.39;58.53
37078;BME280;22989;55.998;37.212;2023-12-22T08:11:50;44021.75;;;-145.39;58.41
37078;BME280;22989;55.998;37.212;2023-12-22T08:14:18;44049.09;;;-145.39;58.33
37078;BME280;22989;55.998;37.212;2023-12-22T08:16:44;44019.78;;;-145.39;58.36
37078;BME280;22989;55.998;37.212;2023-12-22T08:19:10;44029.56;;;-145.39;58.26
37078;BME280;22989;55.998;37.212;2023-12-22T08:21:36;44056.91;;;-145.39;58.31
37078;BME280;22989;55.998;37.212;2023-12-22T08:24:01;44082.28;;;-145.39;58.37
37078;BME280;22989;55.998;37.212;2023-12-22T08:26:27;44062.75;;;-145.39;58.30
37078;BME280;22989;55.998;37.212;2023-12-22T08:28:52;44072.53;;;-145.39;58.21
37078;BME280;22989;55.998;37.212;2023-12-22T08:31:18;44043.22;;;-145.39;58.51
37078;BME280;22989;55.998;37.212;2023-12-22T08:33:44;44019.78;;;-145.39;58.29
37078;BME280;22989;55.998;37.212;2023-12-22T08:36:10;44076.44;;;-145.39;58.36
37078;BME280;22989;55.998;37.212;2023-12-22T08:38:37;44006.13;;;-145.39;58.41
37078;BME280;22989;55.998;37.212;2023-12-22T08:41:07;44056.91;;;-145.39;58.41
37078;BME280;22989;55.998;37.212;2023-12-22T08:43:33;44006.13;;;-145.39;58.26
37078;BME280;22989;55.998;37.212;2023-12-22T08:45:59;44010.03;;;-145.39;58.38
37078;BME280;22989;55.998;37.212;2023-12-22T08:48:25;44017.84;;;-145.39;58.27
37078;BME280;22989;55.998;37.212;2023-12-22T08:50:50;44049.09;;;-145.39;58.21
37078;BME280;22989;55.998;37.212;2023-12-22T08:53:16;44017.84;;;-145.39;58.30
37078;BME280;22989;55.998;37.212;2023-12-22T08:55:42;44000.25;;;-145.39;58.18
37078;BME280;22989;55.998;37.212;2023-12-22T08:58:07;43961.19;;;-145.39;58.07
37078;BME280;22989;55.998;37.212;2023-12-22T09:00:33;43990.47;;;-145.39;57.90
37078;BME280;22989;55.998;37.212;2023-12-22T09:02:58;44025.66;;;-145.39;57.97
37078;BME280;22989;55.998;37.212;2023-12-22T09:05:24;44013.94;;;-145.39;58.00
37078;BME280;22989;55.998;37.212;2023-12-22T09:07:49;43982.66;;;-145.39;58.01
37078;BME280;22989;55.998;37.212;2023-12-22T09:10:15;44006.13;;;-145.39;58.01
37078;BME280;22989;55.998;37.212;2023-12-22T09:12:40;43992.44;;;-145.39;58.13
37078;BME280;22989;55.998;37.212;2023-12-22T09:15:07;44002.22;;;-145.39;57.58
37078;BME280;22989;55.998;37.212;2023-12-22T09:17:33;44019.78;;;-145.39;57.84
37078;BME280;22989;55.998;37.212;2023-12-22T09:20:00;43988.53;;;-145.39;57.68
37078;BME280;22989;55.998;37.212;2023-12-22T09:22:25;43984.63;;;-145.39;57.73
37078;BME280;22989;55.998;37.212;2023-12-22T09:24:51;43986.56;;;-145.39;57.75
37078;BME280;22989;55.998;37.212;2023-12-22T09:27:16;44013.94;;;-145.39;57.55
37078;BME280;22989;55.998;37.212;2023-12-22T09:29:42;44015.88;;;-145.39;57.56
37078;BME280;22989;55.998;37.212;2023-12-22T09:32:07;44017.84;;;-145.39;57.70
37078;BME280;22989;55.998;37.212;2023-12-22T09:34:33;44008.06;;;-145.39;57.65
37078;BME280;22989;55.998;37.212;2023-12-22T09:36:58;44008.06;;;-145.39;57.67
37078;BME280;22989;55.998;37.212;2023-12-22T09:39:24;43984.63;;;-145.39;57.56
37078;BME280;22989;55.998;37.212;2023-12-22T09:41:50;44027.59;;;-145.39;57.60
37078;BME280;22989;55.998;37.212;2023-12-22T09:44:18;43988.53;;;-145.39;57.48
37078;BME280;22989;55.998;37.212;2023-12-22T09:46:45;43988.53;;;-145.39;57.61
37078;BME280;22989;55.998;37.212;2023-12-22T09:49:11;43988.53;;;-145.39;57.56
37078;BME280;22989;55.998;37.212;2023-12-22T09:51:38;43955.31;;;-145.39;57.34
37078;BME280;22989;55.998;37.212;2023-12-22T09:54:05;43939.69;;;-145.39;57.27
37078;BME280;22989;55.998;37.212;2023-12-22T09:56:33;43974.84;;;-145.39;57.24
37078;BME280;22989;55.998;37.212;2023-12-22T09:58:59;44017.84;;;-145.39;57.34
37078;BME280;22989;55.998;37.212;2023-12-22T10:01:25;43967.03;;;-145.39;57.33
37078;BME280;22989;55.998;37.212;2023-12-22T10:03:52;43974.84;;;-145.39;57.28
37078;BME280;22989;55.998;37.212;2023-12-22T10:06:18;43943.59;;;-145.39;57.12
37078;BME280;22989;55.998;37.212;2023-12-22T10:08:46;43963.13;;;-145.39;56.97
37078;BME280;22989;55.998;37.212;2023-12-22T10:11:13;43935.78;;;-145.39;56.85
37078;BME280;22989;55.998;37.212;2023-12-22T10:13:39;43920.16;;;-145.39;56.83
37078;BME280;22989;55.998;37.212;2023-12-22T10:16:06;43969.00;;;-145.39;56.85
37078;BME280;22989;55.998;37.212;2023-12-22T10:18:33;43941.66;;;-145.39;56.68
37078;BME280;22989;55.998;37.212;2023-12-22T10:20:59;43922.13;;;-145.39;56.75
37078;BME280;22989;55.998;37.212;2023-12-22T10:23:25;43912.34;;;-145.39;56.66
37078;BME280;22989;55.998;37.212;2023-12-22T10:25:51;43959.22;;;-145.39;56.69
37078;BME280;22989;55.998;37.212;2023-12-22T10:28:17;43935.78;;;-145.39;56.61
37078;BME280;22989;55.998;37.212;2023-12-22T10:30:47;43910.41;;;-145.39;56.48
37078;BME280;22989;55.998;37.212;2023-12-22T10:33:14;43972.91;;;-145.39;56.56
37078;BME280;22989;55.998;37.212;2023-12-22T10:35:41;43916.25;;;-145.39;56.48
37078;BME280;22989;55.998;37.212;2023-12-22T10:38:08;43951.41;;;-145.39;56.32
37078;BME280;22989;55.998;37.212;2023-12-22T10:40:33;43929.94;;;-145.39;56.33
37078;BME280;22989;55.998;37.212;2023-12-22T10:43:02;43947.50;;;-145.39;56.27
37078;BME280;22989;55.998;37.212;2023-12-22T10:45:28;43943.59;;;-145.39;56.32
37078;BME280;22989;55.998;37.212;2023-12-22T10:47:57;43906.50;;;-145.39;55.99
37078;BME280;22989;55.998;37.212;2023-12-22T10:50:22;43910.41;;;-145.39;56.01
37078;BME280;22989;55.998;37.212;2023-12-22T10:52:50;43941.66;;;-145.39;55.95
37078;BME280;22989;55.998;37.212;2023-12-22T10:55:16;43906.50;;;-145.39;55.76
37078;BME280;22989;55.998;37.212;2023-12-22T10:57:45;43912.34;;;-145.39;56.03
37078;BME280;22989;55.998;37.212;2023-12-22T11:00:12;43898.69;;;-145.39;55.74
37078;BME280;22989;55.998;37.212;2023-12-22T11:03:01;43894.78;;;-145.39;56.04
37078;BME280;22989;55.998;37.212;2023-12-22T11:05:33;43888.91;;;-145.39;55.81
37078;BME280;22989;55.998;37.212;2023-12-22T11:08:00;43869.38;;;-145.39;55.97
37078;BME280;22989;55.998;37.212;2023-12-22T11:10:27;43904.53;;;-145.39;55.94
37078;BME280;22989;55.998;37.212;2023-12-22T11:12:57;43914.31;;;-145.39;55.73
37078;BME280;22989;55.998;37.212;2023-12-22T11:15:24;43879.16;;;-145.39;55.66
37078;BME280;22989;55.998;37.212;2023-12-22T11:17:51;43904.53;;;-145.39;55.75
37078;BME280;22989;55.998;37.212;2023-12-22T11:20:17;43916.25;;;-145.39;55.64
37078;BME280;22989;55.998;37.212;2023-12-22T11:22:44;43886.97;;;-145.39;55.42
37078;BME280;22989;55.998;37.212;2023-12-22T11:25:10;43888.91;;;-145.39;55.43
37078;BME280;22989;55.998;37.212;2023-12-22T11:27:37;43867.44;;;-145.39;55.41
37078;BME280;22989;55.998;37.212;2023-12-22T11:30:04;43818.59;;;-145.39;55.76
37078;BME280;22989;55.998;37.212;2023-12-22T11:32:34;43773.66;;;-145.39;55.36
37078;BME280;22989;55.998;37.212;2023-12-22T11:35:00;43740.47;;;-145.39;55.39
37078;BME280;22989;55.998;37.212;2023-12-22T11:37:25;43711.16;;;-145.39;55.20
37078;BME280;22989;55.998;37.212;2023-12-22T11:39:51;43705.31;;;-145.39;55.44
37078;BME280;22989;55.998;37.212;2023-12-22T11:42:27;43734.59;;;-145.39;55.54
37078;BME280;22989;55.998;37.212;2023-12-22T11:44:55;43732.66;;;-145.39;55.59
37078;BME280;22989;55.998;37.212;2023-12-22T11:47:23;43689.69;;;-145.39;55.52
37078;BME280;22989;55.998;37.212;2023-12-22T11:49:49;43683.81;;;-145.39;55.49
37078;BME280;22989;55.998;37.212;2023-12-22T11:52:18;43660.38;;;-145.39;55.63
37078;BME280;22989;55.998;37.212;2023-12-22T11:59:59;43593.97;;;-145.39;55.54
37078;BME280;22989;55.998;37.212;2023-12-22T12:02:26;43623.28;;;-145.39;55.61
37078;BME280;22989;55.998;37.212;2023-12-22T12:04:53;43631.09;;;-145.39;55.76
37078;BME280;22989;55.998;37.212;2023-12-22T12:07:37;43605.69;;;-145.39;55.77
37078;BME280;22989;55.998;37.212;2023-12-22T12:10:10;43592.03;;;-145.39;55.70
37078;BME280;22989;55.998;37.212;2023-12-22T12:12:36;43580.31;;;-145.39;55.62
37078;BME280;22989;55.998;37.212;2023-12-22T12:15:13;43558.81;;;-145.39;55.63
37078;BME280;22989;55.998;37.212;2023-12-22T12:17:44;43549.06;;;-145.39;55.68
37078;BME280;22989;55.998;37.212;2023-12-22T12:20:11;43498.28;;;-145.39;55.67
37078;BME280;22989;55.998;37.212;2023-12-22T12:22:37;43470.94;;;-145.39;55.84
37078;BME280;22989;55.998;37.212;2023-12-22T12:25:10;43433.81;;;-145.39;55.80
37078;BME280;22989;55.998;37.212;2023-12-22T12:27:36;43386.97;;;-145.39;55.76
37078;BME280;22989;55.998;37.212;2023-12-22T12:30:13;43349.84;;;-145.39;55.89
37078;BME280;22989;55.998;37.212;2023-12-22T12:32:43;43308.84;;;-145.39;55.90